Latest Weather Observations for Lady Elliot Island

IDQ60801

Issued at 10:31 pm EST Friday 12 February 2016 (issued every 30 minutes, with the page automatically refreshed every 10 minutes)

About weather observations | Map of weather stations | Latest weather observations for QLD | Other Formats
Station Details ID: 039059 Name: LADY ELLIOT ISLAND Lat: -24.11 Lon: 152.72 Height: 3.6 m
Data from the previous 72 hours. | See also: Recent months at Lady Elliot Island
Date/Time
EST
Temp
°C
App
Temp
°C
Dew
Point
Rel
Hum
%
Delta-T
°C
Wind Press
QNH
hPa
Press
MSL
hPa
Rain
since 9 am
mm
Dir
 
Spd
km/h
Gust
km/h
Spd
kts
Gust
kts
12/10:30pm 26.2 24.5 21.4 75 3.2 SSE 32 46 17 25 1009.3 1009.3 1.8
12/10:00pm 26.1 23.6 20.8 72 3.5 SSE 35 54 19 29 1009.3 1009.3 1.8
12/09:52pm 26.2 23.1 21.2 74 3.3 SSE 39 57 21 31 1009.4 1009.4 1.8
12/09:30pm 26.3 22.5 20.5 70 3.8 SE 41 57 22 31 1009.7 1009.7 1.8
12/09:28pm 26.2 22.8 20.7 71 3.6 SE 39 57 21 31 1009.7 1009.7 1.8
12/09:00pm 26.1 22.6 21.8 77 2.9 SE 43 54 23 29 1009.7 1009.7 1.8
12/08:30pm 26.0 22.6 21.3 75 3.1 SE 41 57 22 31 1009.8 1009.8 1.8
12/08:00pm 26.0 22.8 21.0 74 3.3 SSE 39 56 21 30 1009.5 1009.5 1.8
12/07:35pm 26.2 23.1 21.2 74 3.3 SSE 39 59 21 32 1009.6 1009.6 1.8
12/07:30pm 26.3 23.2 21.2 73 3.4 SSE 39 54 21 29 1009.6 1009.6 1.8
12/07:00pm 26.2 24.1 21.7 76 3.0 SE 35 48 19 26 1009.4 1009.4 1.8
12/06:30pm 26.3 23.5 21.7 76 3.1 SE 39 52 21 28 1009.1 1009.1 1.8
12/06:00pm 26.4 25.5 22.2 78 2.8 SSE 30 44 16 24 1009.0 1009.0 1.8
12/05:30pm 26.2 24.8 22.2 78 2.7 SE 33 50 18 27 1008.7 1008.7 1.8
12/05:05pm 26.2 24.3 22.0 77 2.8 SE 35 54 19 29 1008.4 1008.4 1.8
12/05:00pm 26.4 25.1 22.1 77 2.9 SSE 32 46 17 25 1008.5 1008.5 1.8
12/04:30pm 25.5 23.6 22.1 81 2.3 SE 35 46 19 25 1008.5 1008.5 1.8
12/04:13pm 25.7 24.6 22.4 82 2.2 SSE 32 50 17 27 1008.4 1008.4 1.6
12/04:00pm 25.4 24.8 22.7 85 1.8 SSE 30 46 16 25 1008.2 1008.2 1.6
12/03:31pm 25.7 25.2 22.1 80 2.4 SSE 28 46 15 25 1008.0 1008.0 1.2
12/03:30pm 26.1 25.6 22.2 79 2.6 SSE 28 44 15 24 1008.0 1008.0 1.2
12/03:16pm 26.6 24.7 21.0 71 3.7 SSE 32 50 17 27 1007.9 1007.9 1.2
12/03:00pm 27.1 25.5 21.9 73 3.5 SE 33 44 18 24 1008.0 1008.0 1.2
12/02:47pm 25.8 25.2 21.9 79 2.6 SSE 28 46 15 25 1008.1 1008.1 1.2
12/02:30pm 26.5 24.2 21.2 72 3.5 SE 35 44 19 24 1008.2 1008.2 1.2
12/02:00pm 25.6 25.3 22.6 83 2.0 SSE 28 44 15 24 1008.4 1008.4 1.0
12/01:30pm 28.1 25.9 21.4 67 4.5 SE 35 46 19 25 1008.6 1008.6 0.0
12/01:00pm 28.2 26.1 20.6 63 5.0 SE 32 46 17 25 1008.9 1008.9 0.0
12/12:30pm 28.7 26.6 21.0 63 5.1 SE 33 44 18 24 1009.0 1009.0 0.0
12/12:00pm 29.4 27.1 21.2 61 5.5 SE 35 44 19 24 1009.1 1009.1 0.0
12/11:30am 29.7 27.0 21.3 60 5.6 SE 37 46 20 25 1009.2 1009.2 0.0
12/11:00am 28.8 26.4 21.0 62 5.2 SE 35 46 19 25 1009.5 1009.5 0.0
12/10:30am 28.6 26.0 21.4 65 4.8 SE 37 48 20 26 1009.7 1009.7 0.0
12/10:00am 27.7 26.2 21.7 70 4.0 SSE 32 43 17 23 1009.8 1009.8 0.0
12/09:30am 28.4 26.2 21.4 66 4.7 SE 35 46 19 25 1010.0 1010.0 0.0
12/09:00am 27.4 25.6 21.1 68 4.2 SSE 32 43 17 23 1010.3 1010.3 0.6
12/08:30am 26.8 24.3 20.1 66 4.4 SE 33 46 18 25 1010.4 1010.4 0.6
12/08:00am 26.7 25.0 20.6 69 4.0 SSE 30 41 16 22 1010.1 1010.1 0.6
12/07:30am 26.4 25.0 20.5 70 3.9 SE 28 43 15 23 1010.0 1010.0 0.6
12/07:26am 26.3 24.8 21.0 72 3.5 SE 30 48 16 26 1009.9 1009.9 0.6
12/07:00am 26.7 24.9 21.1 71 3.7 SE 32 43 17 23 1009.7 1009.7 0.6
12/06:30am 26.1 24.3 21.1 74 3.3 SE 32 46 17 25 1009.5 1009.5 0.6
12/06:00am 25.8 24.3 20.9 74 3.2 SSE 30 43 16 23 1009.2 1009.2 0.6
12/05:30am 25.7 24.1 20.7 74 3.3 SSE 30 44 16 24 1009.2 1009.2 0.6
12/05:00am 25.7 23.4 20.2 71 3.6 SSE 32 43 17 23 1009.1 1009.1 0.6
12/04:30am 25.7 24.5 20.8 74 3.2 SSE 28 39 15 21 1008.8 1008.8 0.6
12/04:00am 25.7 23.9 20.3 72 3.5 SSE 30 41 16 22 1008.7 1008.7 0.6
12/03:30am 25.9 24.4 20.9 74 3.3 SE 30 43 16 23 1008.8 1008.8 0.6
12/03:00am 25.9 23.6 20.2 71 3.7 SE 32 44 17 24 1008.7 1008.7 0.6
12/02:30am 25.9 24.8 21.1 75 3.2 SSE 28 43 15 23 1008.9 1008.9 0.6
12/02:00am 26.1 24.0 20.6 71 3.6 SE 32 43 17 23 1009.2 1009.2 0.6
12/01:30am 26.2 24.1 20.6 71 3.7 SE 32 43 17 23 1009.3 1009.3 0.6
12/01:00am 26.3 23.1 20.2 69 4.0 SE 37 48 20 26 1009.5 1009.5 0.6
12/12:30am 26.4 23.2 20.3 69 4.0 SE 37 48 20 26 1009.6 1009.6 0.6
12/12:00am 26.4 23.9 20.8 71 3.7 SE 35 46 19 25 1009.9 1009.9 0.6
 
Date/Time
EST
Temp
°C
App
Temp
°C
Dew
Point
Rel
Hum
%
Delta-T
°C
Wind Press
QNH
hPa
Press
MSL
hPa
Rain
since 9 am
mm
Dir
 
Spd
km/h
Gust
km/h
Spd
kts
Gust
kts
11/11:30pm 26.3 24.3 21.2 73 3.4 SE 33 44 18 24 1010.0 1010.0 0.6
11/11:00pm 26.2 23.0 20.2 69 3.9 SE 37 50 20 27 1010.1 1010.1 0.6
11/10:30pm 26.3 24.5 21.2 73 3.4 SE 32 44 17 24 1010.2 1010.2 0.6
11/10:00pm 26.2 25.4 22.3 79 2.6 SE 30 43 16 23 1010.3 1010.3 0.4
11/09:30pm 24.7 22.9 22.2 86 1.7 SE 35 48 19 26 1010.3 1010.3 0.4
11/09:00pm 25.8 24.3 22.1 80 2.5 SE 33 46 18 25 1010.2 1010.2 0.4
11/08:30pm 25.9 23.2 21.2 75 3.1 SE 37 48 20 26 1010.2 1010.2 0.4
11/08:00pm 25.6 22.2 21.4 77 2.8 SE 41 54 22 29 1010.0 1010.0 0.4
11/07:30pm 25.8 22.3 21.8 78 2.7 SE 43 56 23 30 1009.9 1009.9 0.4
11/07:00pm 26.5 24.4 20.9 71 3.7 SE 33 44 18 24 1009.7 1009.7 0.4
11/06:30pm 26.6 24.3 20.5 69 4.0 SE 33 43 18 23 1009.4 1009.4 0.4
11/06:00pm 26.8 24.5 21.2 71 3.7 SE 35 44 19 24 1009.0 1009.0 0.4
11/05:30pm 27.0 25.1 21.4 71 3.7 SE 33 43 18 23 1008.8 1008.8 0.4
11/05:00pm 27.7 25.0 21.2 67 4.3 SE 37 46 20 25 1008.5 1008.5 0.4
11/04:30pm 27.9 25.3 20.6 64 4.8 SE 35 46 19 25 1008.4 1008.4 0.4
11/04:00pm 28.1 25.2 20.0 61 5.3 SE 35 48 19 26 1008.2 1008.2 0.4
11/03:30pm 28.2 25.8 21.0 65 4.8 SE 35 44 19 24 1008.2 1008.2 0.4
11/03:00pm 28.3 24.7 20.1 61 5.4 SE 39 48 21 26 1008.4 1008.4 0.4
11/02:30pm 28.9 25.6 20.1 59 5.8 SE 37 48 20 26 1008.4 1008.4 0.4
11/02:00pm 28.8 25.9 20.1 59 5.7 SE 35 44 19 24 1008.5 1008.5 0.4
11/01:30pm 29.2 26.3 20.1 58 6.0 SE 35 44 19 24 1008.8 1008.8 0.4
11/01:00pm 28.7 27.2 20.9 62 5.2 SE 30 37 16 20 1009.0 1009.0 0.4
11/12:30pm 29.4 26.8 20.0 57 6.2 SE 33 44 18 24 1009.4 1009.4 0.4
11/12:00pm 29.1 27.2 21.0 61 5.4 SE 32 41 17 22 1009.8 1009.8 0.4
11/11:30am 29.4 27.4 20.7 59 5.8 SE 32 41 17 22 1010.0 1010.0 0.4
11/11:00am 28.0 26.5 20.9 65 4.7 SE 30 43 16 23 1010.1 1010.1 0.4
11/10:30am 27.5 26.9 21.3 69 4.1 SE 26 43 14 23 1010.2 1010.2 0.4
11/10:00am 25.1 25.4 22.3 84 1.9 SSE 24 39 13 21 1010.3 1010.3 0.4
11/09:30am 27.5 26.7 21.7 70 3.9 SSE 28 39 15 21 1010.1 1010.1 0.0
11/09:00am 27.4 26.4 21.2 69 4.1 SSE 28 41 15 22 1010.2 1010.2 0.0
11/08:30am 27.3 26.2 21.8 72 3.7 SSE 30 41 16 22 1010.1 1010.1 0.0
11/08:00am 27.3 25.2 20.6 67 4.4 SE 32 41 17 22 1010.0 1010.0 0.0
11/07:30am 26.6 24.4 20.3 68 4.1 SE 32 43 17 23 1009.9 1009.9 0.0
11/07:00am 26.6 24.2 20.3 68 4.1 SE 33 44 18 24 1009.5 1009.5 0.0
11/06:30am 26.6 23.4 20.2 68 4.2 SE 37 46 20 25 1009.2 1009.2 0.0
11/06:00am 25.4 24.4 21.3 78 2.7 SSE 28 43 15 23 1008.9 1008.9 0.0
11/05:30am 25.6 23.6 20.7 74 3.2 SE 32 44 17 24 1008.9 1008.9 0.0
11/05:00am 25.5 24.2 20.6 74 3.2 SSE 28 37 15 20 1008.8 1008.8 0.0
11/04:30am 25.6 24.0 20.7 74 3.2 SSE 30 41 16 22 1008.6 1008.6 0.0
11/04:00am 25.5 24.6 20.6 74 3.2 SSE 26 39 14 21 1008.5 1008.5 0.0
11/03:30am 25.4 23.7 20.5 74 3.2 SSE 30 43 16 23 1008.4 1008.4 0.0
11/03:00am 25.4 23.3 20.5 74 3.2 SSE 32 43 17 23 1008.4 1008.4 0.0
11/02:30am 25.4 23.8 20.8 75 3.0 SE 30 43 16 23 1008.6 1008.6 0.0
11/02:00am 25.5 23.4 20.6 74 3.2 SE 32 46 17 25 1008.6 1008.6 0.0
11/01:30am 25.5 24.0 20.9 75 3.0 SE 30 41 16 22 1008.9 1008.9 0.0
11/01:00am 25.8 23.0 20.3 71 3.6 SE 35 46 19 25 1009.2 1009.2 0.0
11/12:30am 25.8 22.9 20.1 71 3.7 SE 35 46 19 25 1009.5 1009.5 0.0
11/12:00am 25.9 23.0 20.1 70 3.8 SE 35 44 19 24 1009.7 1009.7 0.0
 
Date/Time
EST
Temp
°C
App
Temp
°C
Dew
Point
Rel
Hum
%
Delta-T
°C
Wind Press
QNH
hPa
Press
MSL
hPa
Rain
since 9 am
mm
Dir
 
Spd
km/h
Gust
km/h
Spd
kts
Gust
kts
10/11:30pm 26.0 23.1 20.0 69 3.9 SE 35 43 19 23 1010.1 1010.1 0.0
10/11:00pm 26.0 22.0 19.3 66 4.3 SE 39 48 21 26 1010.5 1010.5 0.0
10/10:30pm 26.1 22.4 19.9 68 4.0 SE 39 50 21 27 1010.8 1010.8 0.0
10/10:00pm 26.1 23.0 20.5 71 3.7 SE 37 48 20 26 1011.1 1011.1 0.0
10/09:30pm 26.1 23.2 20.1 69 3.9 SE 35 48 19 26 1011.0 1011.0 0.0
10/09:00pm 26.2 22.8 19.9 68 4.1 SE 37 50 20 27 1010.9 1010.9 0.0
10/08:30pm 26.2 22.6 20.2 69 3.9 SE 39 48 21 26 1010.9 1010.9 0.0
10/08:00pm 26.2 23.4 21.1 73 3.4 SE 37 48 20 26 1010.8 1010.8 0.0
10/07:30pm 26.3 23.6 20.5 70 3.8 SE 35 46 19 25 1010.5 1010.5 0.0
10/07:00pm 26.4 24.9 20.9 72 3.6 SE 30 43 16 23 1010.4 1010.4 0.0
10/06:30pm 26.4 24.0 20.3 69 4.0 SE 33 44 18 24 1010.0 1010.0 0.0
10/06:00pm 26.7 23.7 19.9 66 4.4 SE 35 44 19 24 1009.7 1009.7 0.0
10/05:30pm 26.8 23.6 20.2 67 4.3 SE 37 46 20 25 1009.5 1009.5 0.0
10/05:00pm 27.2 24.4 20.3 66 4.5 SE 35 44 19 24 1009.1 1009.1 0.0
10/04:30pm 28.0 24.8 19.5 60 5.5 SE 35 44 19 24 1008.8 1008.8 0.0
10/04:00pm 28.3 25.9 21.1 65 4.8 SE 35 48 19 26 1008.7 1008.7 0.0
10/03:30pm 28.6 27.0 21.9 67 4.5 SE 33 43 18 23 1008.6 1008.6 0.0
10/03:00pm 28.9 26.9 21.1 62 5.2 SE 33 43 18 23 1008.8 1008.8 0.0
10/02:30pm 28.9 26.7 20.4 60 5.6 SE 32 41 17 22 1009.0 1009.0 0.0
10/02:00pm 29.0 27.1 20.9 61 5.4 SE 32 41 17 22 1009.2 1009.2 0.0
10/01:30pm 29.2 29.3 21.9 64 4.9 SE 24 32 13 17 1009.6 1009.6 0.0
10/01:00pm 28.7 29.6 22.0 67 4.5 SE 20 26 11 14 1010.0 1010.0 0.0
10/12:30pm 27.4 25.8 21.9 72 3.7 SE 33 43 18 23 1010.2 1010.2 0.0
10/12:00pm 28.8 26.3 21.6 65 4.8 SE 37 48 20 26 1010.3 1010.3 0.0
10/11:30am 29.4 28.5 22.2 65 4.9 SE 30 39 16 21 1010.4 1010.4 0.0
10/11:00am 28.6 27.0 21.9 67 4.5 SE 33 46 18 25 1010.5 1010.5 0.0
10/10:30am 27.4 25.7 21.4 70 4.0 SE 32 39 17 21 1010.7 1010.7 0.0
10/10:00am 27.8 27.3 21.5 68 4.2 SE 26 35 14 19 1010.8 1010.8 0.0
10/09:30am 26.4 26.1 21.9 76 3.0 SE 26 39 14 21 1010.6 1010.6 0.0
10/09:00am 27.5 26.0 21.8 71 3.8 SE 32 41 17 22 1010.7 1010.7 1.0
10/08:30am 27.2 25.8 21.2 69 4.0 SE 30 37 16 20 1010.5 1010.5 1.0
10/08:00am 25.9 26.4 22.0 79 2.6 SSE 22 30 12 16 1010.5 1010.5 1.0
10/07:30am 24.6 22.9 21.7 84 1.9 SE 33 48 18 26 1010.5 1010.5 1.0
10/07:19am 25.8 24.6 20.9 74 3.2 SSE 28 48 15 26 1010.5 1010.5 0.6
10/07:00am 25.7 25.1 20.5 73 3.4 SSE 24 35 13 19 1010.3 1010.3 0.6
10/06:30am 25.7 25.1 20.5 73 3.4 SSE 24 39 13 21 1010.3 1010.3 0.6
10/06:00am 25.7 23.9 20.3 72 3.5 SE 30 41 16 22 1009.9 1009.9 0.6
10/05:30am 25.5 23.9 20.0 71 3.6 SE 28 39 15 21 1009.5 1009.5 0.6
10/05:00am 25.4 22.7 19.2 68 4.0 SE 32 43 17 23 1009.3 1009.3 0.6
10/04:30am 25.6 22.6 19.0 67 4.2 SE 33 44 18 24 1009.0 1009.0 0.6
10/04:00am 25.6 22.2 18.9 66 4.3 SE 35 44 19 24 1009.1 1009.1 0.6
10/03:30am 25.2 23.4 19.5 70 3.7 SSE 28 44 15 24 1009.3 1009.3 0.6
10/03:00am 25.7 22.6 18.3 63 4.7 SE 32 41 17 22 1009.4 1009.4 0.6
10/02:30am 25.8 22.1 18.4 63 4.7 ESE 35 46 19 25 1009.5 1009.5 0.6
10/02:00am 25.9 21.9 17.6 60 5.2 SE 35 43 19 23 1009.7 1009.7 0.6
10/01:30am 25.7 21.9 18.1 63 4.8 SE 35 44 19 24 1010.0 1010.0 0.6
10/01:00am 25.9 22.1 18.9 65 4.5 SE 37 46 20 25 1010.2 1010.2 0.6
10/12:30am 25.9 21.6 18.7 64 4.6 SE 39 50 21 27 1010.6 1010.6 0.6
10/12:00am 26.0 21.6 19.3 66 4.3 SE 41 52 22 28 1011.0 1011.0 0.6
 
Date/Time
EST
Temp
°C
App
Temp
°C
Dew
Point
Rel
Hum
%
Delta-T
°C
Wind Press
QNH
hPa
Press
MSL
hPa
Rain
since 9 am
mm
Dir
 
Spd
km/h
Gust
km/h
Spd
kts
Gust
kts
09/11:30pm 25.9 22.8 19.6 68 4.1 SE 35 50 19 27 1011.5 1011.5 0.6
09/11:00pm 25.8 22.6 20.3 71 3.6 SE 37 52 20 28 1011.9 1011.9 0.6
09/10:52pm 25.8 23.0 19.4 67 4.1 SE 33 52 18 28 1012.0 1012.0 0.6

Other Formats:

Comma delimited format used in spreadsheet applications
http://www.bom.gov.au/fwo/IDQ60801/IDQ60801.94388.axf

JavaScript Object Notation format (JSON) in row-major order
http://www.bom.gov.au/fwo/IDQ60801/IDQ60801.94388.json